Paramount, California
Current Conditions -  °F | °C
As of 3:53 PM on Saturday 20 Dec 2014 (Local Time) from KLGB Reporting Station
Overcast Overcast  
Wind Chill: 62°   Ceiling: 2700
Heat Index: 62°   Visibility: 9mi
Dew Point: 54°   Wind: 3mph
Humidity: 75%   Direction: 170°S
Pressure: 30.12"   Gusts: NA
Location:  33.89°N, 118.16°W
Report Text: KLGB 202353Z 17003KT 9SM OVC027 17/12 A3012 RMK AO2 SLP197 T01670122 10178 20150 56011
Loading
Personal Weather Stations






























Interactive Weather Map New forecast layout! Learn more

10-Day Weather Forecast

Advertisements
Track Severe Weather on mobile